Terminal Aerodrome Forecast
Issued by NWS Charleston, WV

Current Version | Previous Version | Graphics & Text | Print | Product List | Glossary On
Versions: 1 2 3 4 5 6 7 8 9 10 11 12 13 14 15 16 17 18 19 20 21 22 23
000
FTUS41 KRLX 291731
TAFEKN
TAF
KEKN 291731Z 2918/3018 30005KT P6SM BKN045
     FM300200 00000KT P6SM SCT070
     FM300300 00000KT 6SM BR SCT080
     FM300600 00000KT 1SM BR BKN001
     FM301100 00000KT 2SM BR SCT001 BKN040
     FM301300 00000KT 6SM BR BKN035
     FM301400 25004KT P6SM BKN060=

USA.gov is the U.S. government's official web portal to all federal, state and local government web resources and services.